createdAt,value
2018-12-06T00:00:01.497Z,3.81
2018-12-06T00:00:05.803Z,3.81
2018-12-06T00:00:10.102Z,3.81
2018-12-06T00:00:14.404Z,3.8
2018-12-06T00:00:18.706Z,3.8
2018-12-06T00:00:22.898Z,3.81
2018-12-06T00:00:27.189Z,3.81
2018-12-06T00:00:31.383Z,3.8
2018-12-06T00:00:35.687Z,3.79
2018-12-06T00:00:39.990Z,3.8
2018-12-06T00:00:44.190Z,3.79
2018-12-06T00:00:48.478Z,3.79
2018-12-06T00:00:52.778Z,3.79
2018-12-06T00:00:56.971Z,3.78
2018-12-06T00:01:01.161Z,3.79
2018-12-06T00:01:05.449Z,3.78
2018-12-06T00:01:09.741Z,3.77
2018-12-06T00:01:14.032Z,3.78
2018-12-06T00:01:18.323Z,3.78
2018-12-06T00:01:22.614Z,3.77
2018-12-06T00:01:26.902Z,3.76
2018-12-06T00:01:31.195Z,3.77
2018-12-06T00:01:35.387Z,3.77
2018-12-06T00:01:39.686Z,3.77
2018-12-06T00:01:43.981Z,3.77
2018-12-06T00:01:48.275Z,3.77
2018-12-06T00:01:52.565Z,3.77
2018-12-06T00:01:56.870Z,3.76
2018-12-06T00:02:01.168Z,3.76
2018-12-06T00:02:05.563Z,3.77
2018-12-06T00:02:09.855Z,3.76
2018-12-06T00:02:14.156Z,3.76
2018-12-06T00:02:18.445Z,3.76
2018-12-06T00:02:22.738Z,3.76
2018-12-06T00:02:27.030Z,3.76
2018-12-06T00:02:31.324Z,3.75
2018-12-06T00:02:35.521Z,3.74
2018-12-06T00:02:39.819Z,3.75
2018-12-06T00:02:44.116Z,3.74
2018-12-06T00:02:48.436Z,3.73
2018-12-06T00:02:52.726Z,3.74
2018-12-06T00:02:57.017Z,3.74
2018-12-06T00:03:01.313Z,3.73
2018-12-06T00:03:05.523Z,3.73
2018-12-06T00:03:09.811Z,3.74
2018-12-06T00:03:14.107Z,3.73
2018-12-06T00:03:18.393Z,3.72
2018-12-06T00:03:22.769Z,3.73
2018-12-06T00:03:26.969Z,3.73
2018-12-06T00:03:31.265Z,3.72
2018-12-06T00:03:35.552Z,3.72
2018-12-06T00:03:39.749Z,3.72
2018-12-06T00:03:44.050Z,3.73
2018-12-06T00:03:48.343Z,3.72
2018-12-06T00:03:52.729Z,3.73
2018-12-06T00:03:57.020Z,3.73
2018-12-06T00:04:01.320Z,3.72
2018-12-06T00:04:05.613Z,3.72
2018-12-06T00:04:09.902Z,3.72
2018-12-06T00:04:14.095Z,3.72
2018-12-06T00:04:18.387Z,3.72
2018-12-06T00:04:22.704Z,3.72
2018-12-06T00:04:27.001Z,3.72
2018-12-06T00:04:31.308Z,3.72
2018-12-06T00:04:35.598Z,3.72
2018-12-06T00:04:39.890Z,3.72
2018-12-06T00:04:44.093Z,3.71
2018-12-06T00:04:48.398Z,3.71
2018-12-06T00:04:52.696Z,3.73
2018-12-06T00:04:56.990Z,3.72
2018-12-06T00:05:01.283Z,3.73
2018-12-06T00:05:05.574Z,3.73
2018-12-06T00:05:09.864Z,3.73
2018-12-06T00:05:14.159Z,3.73
2018-12-06T00:05:18.451Z,3.73
2018-12-06T00:05:22.748Z,3.73
2018-12-06T00:05:27.048Z,3.74
2018-12-06T00:05:31.336Z,3.73
2018-12-06T00:05:35.626Z,3.73
2018-12-06T00:05:39.936Z,3.74
2018-12-06T00:05:44.228Z,3.74
2018-12-06T00:05:48.442Z,3.74
2018-12-06T00:05:52.645Z,3.74
2018-12-06T00:05:56.933Z,3.75
2018-12-06T00:06:01.310Z,3.75
2018-12-06T00:06:05.603Z,3.75
2018-12-06T00:06:09.795Z,3.75
2018-12-06T00:06:13.997Z,3.75
2018-12-06T00:06:18.286Z,3.76
2018-12-06T00:06:22.575Z,3.76
2018-12-06T00:06:26.678Z,3.76
2018-12-06T00:06:30.967Z,3.76
2018-12-06T00:06:35.263Z,3.76
2018-12-06T00:06:39.460Z,3.76
2018-12-06T00:06:43.747Z,3.76
2018-12-06T00:06:48.044Z,3.76
2018-12-06T00:06:52.337Z,3.77
2018-12-06T00:06:56.633Z,3.77
2018-12-06T00:07:01.017Z,3.77
2018-12-06T00:07:05.303Z,3.77
2018-12-06T00:07:09.632Z,3.78
2018-12-06T00:07:13.926Z,3.78
2018-12-06T00:07:18.217Z,3.78
2018-12-06T00:07:22.513Z,3.79
2018-12-06T00:07:26.810Z,3.8
2018-12-06T00:07:31.059Z,3.79
2018-12-06T00:07:35.350Z,3.79
2018-12-06T00:07:39.629Z,3.79
2018-12-06T00:07:43.920Z,3.79
2018-12-06T00:07:48.211Z,3.8
2018-12-06T00:07:52.502Z,3.8
2018-12-06T00:07:56.794Z,3.79
2018-12-06T00:08:01.095Z,3.8
2018-12-06T00:08:05.287Z,3.8
2018-12-06T00:08:09.575Z,3.8
2018-12-06T00:08:13.865Z,3.8
2018-12-06T00:08:18.173Z,3.81
2018-12-06T00:08:22.530Z,3.8
2018-12-06T00:08:26.722Z,3.81
2018-12-06T00:08:31.009Z,3.81
2018-12-06T00:08:35.208Z,3.81
2018-12-06T00:08:39.502Z,3.81
2018-12-06T00:08:43.791Z,3.81
2018-12-06T00:08:48.079Z,3.8
2018-12-06T00:08:52.273Z,3.81
2018-12-06T00:08:56.560Z,3.81
2018-12-06T00:09:00.849Z,3.82
2018-12-06T00:09:05.142Z,3.8
2018-12-06T00:09:09.439Z,3.81
2018-12-06T00:09:13.735Z,3.81
2018-12-06T00:09:17.931Z,3.82
2018-12-06T00:09:22.219Z,3.82
2018-12-06T00:09:26.552Z,3.82
2018-12-06T00:09:30.841Z,3.82
2018-12-06T00:09:35.154Z,3.82
2018-12-06T00:09:39.349Z,3.83
2018-12-06T00:09:43.642Z,3.82
2018-12-06T00:09:47.838Z,3.82
2018-12-06T00:09:52.133Z,3.82
2018-12-06T00:09:56.430Z,3.82
2018-12-06T00:10:00.719Z,3.82
2018-12-06T00:10:05.164Z,3.83
2018-12-06T00:10:09.457Z,3.83
2018-12-06T00:10:13.650Z,3.82
2018-12-06T00:10:17.943Z,3.83
2018-12-06T00:10:22.136Z,3.82
2018-12-06T00:10:26.437Z,3.82
2018-12-06T00:10:30.727Z,3.83
2018-12-06T00:10:35.014Z,3.83
2018-12-06T00:10:39.309Z,3.82
2018-12-06T00:10:43.596Z,3.82
2018-12-06T00:10:47.899Z,3.82
2018-12-06T00:10:52.219Z,3.81
2018-12-06T00:10:56.527Z,3.82
2018-12-06T00:11:00.817Z,3.82
2018-12-06T00:11:05.104Z,3.82
2018-12-06T00:11:09.408Z,3.82
2018-12-06T00:11:13.698Z,3.81
2018-12-06T00:11:17.998Z,3.81
2018-12-06T00:11:22.290Z,3.81
2018-12-06T00:11:26.587Z,3.81
2018-12-06T00:11:30.879Z,3.81
2018-12-06T00:11:35.170Z,3.81
2018-12-06T00:11:39.366Z,3.82
2018-12-06T00:11:43.566Z,3.81
2018-12-06T00:11:47.764Z,3.81
2018-12-06T00:11:51.860Z,3.81
2018-12-06T00:11:56.150Z,3.81
2018-12-06T00:12:00.441Z,3.8
2018-12-06T00:12:04.731Z,3.8
2018-12-06T00:12:09.028Z,3.8
2018-12-06T00:12:13.319Z,3.8
2018-12-06T00:12:17.614Z,3.79
2018-12-06T00:12:21.724Z,3.79
2018-12-06T00:12:26.021Z,3.8
2018-12-06T00:12:30.215Z,3.8
2018-12-06T00:12:34.420Z,3.79
2018-12-06T00:12:38.615Z,3.79
2018-12-06T00:12:42.920Z,3.79
2018-12-06T00:12:47.206Z,3.79
2018-12-06T00:12:51.493Z,3.79
2018-12-06T00:12:55.784Z,3.79
2018-12-06T00:13:00.072Z,3.78
2018-12-06T00:13:04.367Z,3.8
2018-12-06T00:13:08.659Z,3.79
2018-12-06T00:13:12.947Z,3.78
2018-12-06T00:13:17.241Z,3.78
2018-12-06T00:13:21.533Z,3.78
2018-12-06T00:13:25.838Z,3.78
2018-12-06T00:13:30.027Z,3.77
2018-12-06T00:13:34.334Z,3.78
2018-12-06T00:13:38.524Z,3.79
2018-12-06T00:13:42.815Z,3.78
2018-12-06T00:13:47.104Z,3.79
2018-12-06T00:13:51.396Z,3.78
2018-12-06T00:13:55.689Z,3.78
2018-12-06T00:13:59.878Z,3.78
2018-12-06T00:14:04.186Z,3.77
2018-12-06T00:14:08.473Z,3.78
2018-12-06T00:14:12.763Z,3.79
2018-12-06T00:14:17.055Z,3.78
2018-12-06T00:14:21.371Z,3.78
2018-12-06T00:14:25.661Z,3.77
2018-12-06T00:14:29.856Z,3.78
2018-12-06T00:14:34.148Z,3.77
2018-12-06T00:14:38.441Z,3.77
2018-12-06T00:14:42.732Z,3.77
2018-12-06T00:14:47.033Z,3.78
2018-12-06T00:14:51.323Z,3.77
2018-12-06T00:14:55.616Z,3.77
2018-12-06T00:14:59.906Z,3.76
2018-12-06T00:15:04.208Z,3.76
2018-12-06T00:15:08.400Z,3.76
2018-12-06T00:15:12.791Z,3.76
2018-12-06T00:15:17.079Z,3.76
2018-12-06T00:15:21.368Z,3.76
2018-12-06T00:15:25.572Z,3.75
2018-12-06T00:15:29.855Z,3.76
2018-12-06T00:15:34.165Z,3.75
2018-12-06T00:15:38.534Z,3.75
2018-12-06T00:15:42.827Z,3.75
2018-12-06T00:15:47.085Z,3.76
2018-12-06T00:15:51.381Z,3.75
2018-12-06T00:15:55.674Z,3.75
2018-12-06T00:15:59.970Z,3.75
2018-12-06T00:16:04.164Z,3.75
2018-12-06T00:16:08.356Z,3.75
2018-12-06T00:16:12.650Z,3.74
2018-12-06T00:16:16.943Z,3.75
2018-12-06T00:16:21.232Z,3.73
2018-12-06T00:16:25.563Z,3.74
2018-12-06T00:16:29.852Z,3.73
2018-12-06T00:16:34.148Z,3.73
2018-12-06T00:16:38.453Z,3.73
2018-12-06T00:16:42.738Z,3.73
2018-12-06T00:16:47.089Z,3.73
2018-12-06T00:16:51.376Z,3.72
2018-12-06T00:16:55.475Z,3.73
2018-12-06T00:16:59.673Z,3.72
2018-12-06T00:17:04.112Z,3.71
2018-12-06T00:17:08.425Z,3.72
2018-12-06T00:17:12.622Z,3.71
2018-12-06T00:17:16.916Z,3.72
2018-12-06T00:17:21.205Z,3.72
2018-12-06T00:17:25.311Z,3.71
2018-12-06T00:17:29.606Z,3.71
2018-12-06T00:17:33.899Z,3.71
2018-12-06T00:17:38.192Z,3.7
2018-12-06T00:17:42.488Z,3.71
2018-12-06T00:17:46.687Z,3.71
2018-12-06T00:17:50.982Z,3.71
2018-12-06T00:17:55.282Z,3.7
2018-12-06T00:17:59.569Z,3.71
2018-12-06T00:18:03.860Z,3.7
2018-12-06T00:18:08.062Z,3.7
2018-12-06T00:18:12.375Z,3.7
2018-12-06T00:18:16.760Z,3.7
2018-12-06T00:18:20.956Z,3.71
2018-12-06T00:18:25.258Z,3.7
2018-12-06T00:18:29.551Z,3.71
2018-12-06T00:18:33.746Z,3.71
2018-12-06T00:18:38.031Z,3.71
2018-12-06T00:18:42.324Z,3.72
2018-12-06T00:18:46.615Z,3.7
2018-12-06T00:18:50.812Z,3.7
2018-12-06T00:18:55.105Z,3.7
2018-12-06T00:18:59.394Z,3.7
2018-12-06T00:19:03.843Z,3.7
2018-12-06T00:19:08.149Z,3.71
2018-12-06T00:19:12.409Z,3.7
2018-12-06T00:19:16.703Z,3.7
2018-12-06T00:19:20.996Z,3.7
2018-12-06T00:19:25.196Z,3.7
2018-12-06T00:19:29.491Z,3.7
2018-12-06T00:19:33.684Z,3.7
2018-12-06T00:19:37.877Z,3.7
2018-12-06T00:19:42.171Z,3.7
2018-12-06T00:19:46.473Z,3.71
2018-12-06T00:19:50.768Z,3.7
2018-12-06T00:19:55.061Z,3.7
2018-12-06T00:19:59.350Z,3.71
2018-12-06T00:20:03.728Z,3.7
2018-12-06T00:20:08.021Z,3.7
2018-12-06T00:20:12.316Z,3.71
2018-12-06T00:20:16.564Z,3.71
2018-12-06T00:20:20.859Z,3.71
2018-12-06T00:20:25.167Z,3.7
2018-12-06T00:20:29.455Z,3.71
2018-12-06T00:20:33.658Z,3.71
2018-12-06T00:20:37.849Z,3.72
2018-12-06T00:20:42.127Z,3.71
2018-12-06T00:20:46.422Z,3.7
2018-12-06T00:20:50.712Z,3.71
2018-12-06T00:20:55.006Z,3.71
2018-12-06T00:20:59.293Z,3.71
2018-12-06T00:21:03.484Z,3.7
2018-12-06T00:21:07.816Z,3.71
2018-12-06T00:21:12.111Z,3.71
2018-12-06T00:21:16.403Z,3.71
2018-12-06T00:21:20.693Z,3.72
2018-12-06T00:21:24.885Z,3.7
2018-12-06T00:21:29.176Z,3.71
2018-12-06T00:21:33.470Z,3.71
2018-12-06T00:21:37.771Z,3.71
2018-12-06T00:21:42.061Z,3.72
2018-12-06T00:21:46.354Z,3.71
2018-12-06T00:21:50.644Z,3.71
2018-12-06T00:21:54.941Z,3.71
2018-12-06T00:21:59.241Z,3.71
2018-12-06T00:22:03.438Z,3.71
2018-12-06T00:22:07.732Z,3.71
2018-12-06T00:22:12.028Z,3.71
2018-12-06T00:22:16.221Z,3.71
2018-12-06T00:22:20.593Z,3.71
2018-12-06T00:22:24.886Z,3.71
2018-12-06T00:22:29.174Z,3.71
2018-12-06T00:22:33.370Z,3.71
2018-12-06T00:22:37.564Z,3.72
2018-12-06T00:22:41.884Z,3.71
2018-12-06T00:22:46.179Z,3.72
2018-12-06T00:22:50.476Z,3.71
2018-12-06T00:22:54.768Z,3.72
2018-12-06T00:22:59.059Z,3.72
2018-12-06T00:23:03.356Z,3.72
2018-12-06T00:23:07.694Z,3.72
2018-12-06T00:23:11.987Z,3.72
2018-12-06T00:23:16.308Z,3.72
2018-12-06T00:23:20.607Z,3.72
2018-12-06T00:23:24.704Z,3.72
2018-12-06T00:23:28.998Z,3.72
2018-12-06T00:23:33.296Z,3.72
2018-12-06T00:23:37.586Z,3.72
2018-12-06T00:23:41.876Z,3.72
2018-12-06T00:23:46.064Z,3.73
2018-12-06T00:23:50.359Z,3.72
2018-12-06T00:23:54.551Z,3.72
2018-12-06T00:23:58.864Z,3.72
2018-12-06T00:24:03.159Z,3.72
2018-12-06T00:24:07.488Z,3.72
2018-12-06T00:24:11.684Z,3.73
2018-12-06T00:24:15.972Z,3.72
2018-12-06T00:24:20.266Z,3.72
2018-12-06T00:24:24.623Z,3.71
2018-12-06T00:24:28.825Z,3.72
2018-12-06T00:24:33.119Z,3.72
2018-12-06T00:24:37.318Z,3.71
2018-12-06T00:24:41.608Z,3.72
2018-12-06T00:24:45.899Z,3.72
2018-12-06T00:24:50.191Z,3.71
2018-12-06T00:24:54.557Z,3.72
2018-12-06T00:24:58.847Z,3.71
2018-12-06T00:25:03.035Z,3.71
2018-12-06T00:25:07.329Z,3.71
2018-12-06T00:25:11.617Z,3.71
2018-12-06T00:25:15.909Z,3.71
2018-12-06T00:25:20.099Z,3.7
2018-12-06T00:25:24.389Z,3.7
2018-12-06T00:25:28.688Z,3.7
2018-12-06T00:25:32.995Z,3.71
2018-12-06T00:25:37.092Z,3.69
2018-12-06T00:25:41.381Z,3.71
2018-12-06T00:25:45.478Z,3.71
2018-12-06T00:25:49.653Z,3.7
2018-12-06T00:25:53.943Z,3.7
2018-12-06T00:25:58.137Z,3.7
2018-12-06T00:26:02.426Z,3.7
2018-12-06T00:26:06.715Z,3.69
2018-12-06T00:26:11.001Z,3.69
2018-12-06T00:26:15.292Z,3.7
2018-12-06T00:26:19.579Z,3.69
2018-12-06T00:26:23.869Z,3.69
2018-12-06T00:26:28.059Z,3.7
2018-12-06T00:26:32.440Z,3.69
2018-12-06T00:26:36.653Z,3.68
2018-12-06T00:26:40.842Z,3.7
2018-12-06T00:26:45.130Z,3.7
2018-12-06T00:26:49.423Z,3.69
2018-12-06T00:26:53.716Z,3.7
2018-12-06T00:26:58.010Z,3.69
2018-12-06T00:27:02.302Z,3.7
2018-12-06T00:27:06.602Z,3.7
2018-12-06T00:27:10.906Z,3.7
2018-12-06T00:27:15.196Z,3.7
2018-12-06T00:27:19.493Z,3.69
2018-12-06T00:27:23.797Z,3.71
2018-12-06T00:27:28.085Z,3.71
2018-12-06T00:27:32.370Z,3.7
2018-12-06T00:27:36.563Z,3.71
2018-12-06T00:27:40.753Z,3.71
2018-12-06T00:27:45.043Z,3.7
2018-12-06T00:27:49.372Z,3.7
2018-12-06T00:27:53.662Z,3.69
2018-12-06T00:27:58.025Z,3.7
2018-12-06T00:28:02.333Z,3.71
2018-12-06T00:28:06.625Z,3.71
2018-12-06T00:28:10.920Z,3.7
2018-12-06T00:28:15.291Z,3.7
2018-12-06T00:28:19.490Z,3.7
2018-12-06T00:28:23.690Z,3.7
2018-12-06T00:28:27.982Z,3.71
2018-12-06T00:28:32.270Z,3.7
2018-12-06T00:28:36.558Z,3.7
2018-12-06T00:28:40.844Z,3.7
2018-12-06T00:28:45.045Z,3.7
2018-12-06T00:28:49.335Z,3.71
2018-12-06T00:28:53.633Z,3.7
2018-12-06T00:28:57.925Z,3.71
2018-12-06T00:29:02.227Z,3.7
2018-12-06T00:29:06.522Z,3.71
2018-12-06T00:29:10.817Z,3.71
2018-12-06T00:29:15.121Z,3.71
2018-12-06T00:29:19.409Z,3.7
2018-12-06T00:29:23.598Z,3.71
2018-12-06T00:29:27.914Z,3.72
2018-12-06T00:29:32.204Z,3.71
2018-12-06T00:29:36.496Z,3.72
2018-12-06T00:29:40.790Z,3.72
2018-12-06T00:29:45.084Z,3.71
2018-12-06T00:29:49.372Z,3.71
2018-12-06T00:29:53.663Z,3.71
2018-12-06T00:29:57.958Z,3.71
2018-12-06T00:30:02.304Z,3.72
2018-12-06T00:30:06.591Z,3.72
2018-12-06T00:30:10.882Z,3.72
2018-12-06T00:30:15.186Z,3.71
2018-12-06T00:30:19.479Z,3.72
2018-12-06T00:30:23.767Z,3.72
2018-12-06T00:30:28.063Z,3.71
2018-12-06T00:30:32.354Z,3.72
2018-12-06T00:30:36.649Z,3.72
2018-12-06T00:30:40.846Z,3.72
2018-12-06T00:30:45.138Z,3.72
2018-12-06T00:30:49.337Z,3.72
2018-12-06T00:30:53.708Z,3.73
2018-12-06T00:30:58.012Z,3.71
2018-12-06T00:31:02.301Z,3.72
2018-12-06T00:31:06.592Z,3.73
2018-12-06T00:31:10.878Z,3.72
2018-12-06T00:31:15.229Z,3.72
2018-12-06T00:31:19.526Z,3.71
2018-12-06T00:31:23.813Z,3.72
2018-12-06T00:31:28.194Z,3.72
2018-12-06T00:31:32.488Z,3.72
2018-12-06T00:31:36.688Z,3.73
2018-12-06T00:31:40.981Z,3.72
2018-12-06T00:31:45.273Z,3.72
2018-12-06T00:31:49.561Z,3.72
2018-12-06T00:31:53.855Z,3.72
2018-12-06T00:31:58.052Z,3.72
2018-12-06T00:32:02.446Z,3.73
2018-12-06T00:32:06.734Z,3.73
2018-12-06T00:32:11.027Z,3.72
2018-12-06T00:32:15.322Z,3.72
2018-12-06T00:32:19.620Z,3.72
2018-12-06T00:32:23.817Z,3.72
2018-12-06T00:32:28.118Z,3.74
2018-12-06T00:32:32.410Z,3.73
2018-12-06T00:32:36.725Z,3.72
2018-12-06T00:32:41.017Z,3.72
2018-12-06T00:32:45.119Z,3.72
2018-12-06T00:32:49.405Z,3.72
2018-12-06T00:32:53.695Z,3.72
2018-12-06T00:32:57.889Z,3.73
2018-12-06T00:33:02.189Z,3.73
2018-12-06T00:33:06.485Z,3.73
2018-12-06T00:33:10.780Z,3.73
2018-12-06T00:33:15.170Z,3.73
2018-12-06T00:33:19.535Z,3.72
2018-12-06T00:33:23.744Z,3.73
2018-12-06T00:33:27.939Z,3.73
2018-12-06T00:33:32.131Z,3.74
2018-12-06T00:33:36.324Z,3.73
2018-12-06T00:33:40.632Z,3.73
2018-12-06T00:33:44.926Z,3.74
2018-12-06T00:33:49.218Z,3.74
2018-12-06T00:33:53.527Z,3.73
2018-12-06T00:33:57.720Z,3.74
2018-12-06T00:34:02.019Z,3.74
2018-12-06T00:34:06.310Z,3.76
2018-12-06T00:34:10.602Z,3.75
2018-12-06T00:34:14.896Z,3.75
2018-12-06T00:34:19.182Z,3.75
2018-12-06T00:34:23.386Z,3.75
2018-12-06T00:34:27.678Z,3.75
2018-12-06T00:34:31.970Z,3.75
2018-12-06T00:34:36.263Z,3.75
2018-12-06T00:34:40.558Z,3.75
2018-12-06T00:34:44.865Z,3.75
2018-12-06T00:34:49.152Z,3.75
2018-12-06T00:34:53.443Z,3.75
2018-12-06T00:34:57.737Z,3.75
2018-12-06T00:35:02.025Z,3.75
2018-12-06T00:35:06.319Z,3.75
2018-12-06T00:35:10.514Z,3.75
2018-12-06T00:35:14.804Z,3.75
2018-12-06T00:35:19.100Z,3.75
2018-12-06T00:35:23.301Z,3.76
2018-12-06T00:35:27.592Z,3.76
2018-12-06T00:35:31.878Z,3.76
2018-12-06T00:35:36.087Z,3.75
2018-12-06T00:35:40.376Z,3.76
2018-12-06T00:35:44.676Z,3.74
2018-12-06T00:35:48.978Z,3.75
2018-12-06T00:35:53.264Z,3.76
2018-12-06T00:35:57.462Z,3.76
2018-12-06T00:36:01.753Z,3.76
2018-12-06T00:36:06.046Z,3.76
2018-12-06T00:36:10.429Z,3.76
2018-12-06T00:36:14.723Z,3.75
2018-12-06T00:36:18.917Z,3.76
2018-12-06T00:36:23.217Z,3.76
2018-12-06T00:36:27.503Z,3.76
2018-12-06T00:36:31.799Z,3.77
2018-12-06T00:36:36.093Z,3.76
2018-12-06T00:36:40.405Z,3.76
2018-12-06T00:36:44.699Z,3.76
2018-12-06T00:36:48.993Z,3.76
2018-12-06T00:36:53.185Z,3.76
2018-12-06T00:36:57.475Z,3.75
2018-12-06T00:37:01.768Z,3.77
2018-12-06T00:37:06.060Z,3.76
2018-12-06T00:37:10.259Z,3.77
2018-12-06T00:37:14.546Z,3.76
2018-12-06T00:37:18.835Z,3.77
2018-12-06T00:37:23.027Z,3.77
2018-12-06T00:37:27.316Z,3.77
2018-12-06T00:37:31.511Z,3.78
2018-12-06T00:37:35.814Z,3.78
2018-12-06T00:37:40.111Z,3.77
2018-12-06T00:37:44.399Z,3.78
2018-12-06T00:37:48.688Z,3.77
2018-12-06T00:37:52.975Z,3.77
2018-12-06T00:37:57.170Z,3.77
2018-12-06T00:38:01.466Z,3.78
2018-12-06T00:38:05.764Z,3.77
2018-12-06T00:38:10.066Z,3.78
2018-12-06T00:38:14.371Z,3.77
2018-12-06T00:38:18.677Z,3.78
2018-12-06T00:38:22.968Z,3.78
2018-12-06T00:38:27.280Z,3.78
2018-12-06T00:38:31.576Z,3.77
2018-12-06T00:38:35.868Z,3.78
2018-12-06T00:38:40.160Z,3.77
2018-12-06T00:38:44.470Z,3.78
2018-12-06T00:38:48.784Z,3.78
2018-12-06T00:38:53.079Z,3.79
2018-12-06T00:38:57.369Z,3.79
2018-12-06T00:39:01.659Z,3.78
2018-12-06T00:39:05.960Z,3.78
2018-12-06T00:39:10.275Z,3.79
2018-12-06T00:39:14.569Z,3.79
2018-12-06T00:39:18.863Z,3.79
2018-12-06T00:39:23.054Z,3.79
2018-12-06T00:39:27.331Z,3.8
2018-12-06T00:39:31.628Z,3.79
2018-12-06T00:39:35.901Z,3.79
2018-12-06T00:39:40.200Z,3.8
2018-12-06T00:39:44.495Z,3.8
2018-12-06T00:39:48.691Z,3.8
2018-12-06T00:39:52.978Z,3.8
2018-12-06T00:39:57.174Z,3.8
2018-12-06T00:40:01.465Z,3.8
2018-12-06T00:40:05.779Z,3.81
2018-12-06T00:40:10.068Z,3.8
2018-12-06T00:40:14.362Z,3.81
2018-12-06T00:40:18.651Z,3.81
2018-12-06T00:40:22.946Z,3.8
2018-12-06T00:40:27.141Z,3.82
2018-12-06T00:40:31.438Z,3.82
2018-12-06T00:40:35.736Z,3.82
2018-12-06T00:40:39.931Z,3.82
2018-12-06T00:40:44.223Z,3.82
2018-12-06T00:40:48.527Z,3.83
2018-12-06T00:40:52.830Z,3.83
2018-12-06T00:40:57.121Z,3.83
2018-12-06T00:41:01.416Z,3.83
2018-12-06T00:41:05.714Z,3.83
2018-12-06T00:41:10.003Z,3.84
2018-12-06T00:41:14.302Z,3.83
2018-12-06T00:41:18.498Z,3.83
2018-12-06T00:41:22.792Z,3.84
2018-12-06T00:41:27.083Z,3.85
2018-12-06T00:41:31.454Z,3.85
2018-12-06T00:41:35.748Z,3.85
2018-12-06T00:41:40.046Z,3.85
2018-12-06T00:41:44.333Z,3.85
2018-12-06T00:41:48.623Z,3.85
2018-12-06T00:41:52.920Z,3.85
2018-12-06T00:41:57.216Z,3.85
2018-12-06T00:42:01.519Z,3.86
2018-12-06T00:42:05.817Z,3.86
2018-12-06T00:42:10.107Z,3.86
2018-12-06T00:42:14.299Z,3.87
2018-12-06T00:42:18.588Z,3.87
2018-12-06T00:42:22.894Z,3.86
2018-12-06T00:42:27.206Z,3.87
2018-12-06T00:42:31.495Z,3.87
2018-12-06T00:42:35.786Z,3.87
2018-12-06T00:42:40.073Z,3.87
2018-12-06T00:42:44.375Z,3.87
2018-12-06T00:42:50.041Z,3.87
2018-12-06T00:42:54.343Z,3.88
2018-12-06T00:42:58.654Z,3.87
2018-12-06T00:43:02.955Z,3.88
2018-12-06T00:43:07.156Z,3.87
2018-12-06T00:43:11.456Z,3.87
2018-12-06T00:43:15.806Z,3.88
2018-12-06T00:43:20.108Z,3.88
2018-12-06T00:43:24.405Z,3.88
2018-12-06T00:43:28.597Z,3.88
2018-12-06T00:43:32.892Z,3.88
2018-12-06T00:43:37.188Z,3.87
2018-12-06T00:43:41.491Z,3.88
2018-12-06T00:43:45.782Z,3.88
2018-12-06T00:43:49.990Z,3.88
2018-12-06T00:43:54.186Z,3.88
2018-12-06T00:43:58.478Z,3.88
2018-12-06T00:44:02.776Z,3.89
2018-12-06T00:44:07.074Z,3.89
2018-12-06T00:44:11.370Z,3.89
2018-12-06T00:44:15.661Z,3.89
2018-12-06T00:44:19.856Z,3.89
2018-12-06T00:44:24.212Z,3.89
2018-12-06T00:44:28.510Z,3.89
2018-12-06T00:44:32.712Z,3.9
2018-12-06T00:44:37.005Z,3.9
2018-12-06T00:44:41.300Z,3.89
2018-12-06T00:44:45.666Z,3.91
2018-12-06T00:44:49.968Z,3.91
2018-12-06T00:44:54.261Z,3.9
2018-12-06T00:44:58.552Z,3.91
2018-12-06T00:45:02.954Z,3.9
2018-12-06T00:45:07.159Z,3.91
2018-12-06T00:45:11.457Z,3.91
2018-12-06T00:45:15.752Z,3.93
2018-12-06T00:45:20.045Z,3.92
2018-12-06T00:45:24.333Z,3.92
2018-12-06T00:45:28.633Z,3.93
2018-12-06T00:45:33.036Z,3.93
2018-12-06T00:45:37.329Z,3.93
2018-12-06T00:45:41.523Z,3.93
2018-12-06T00:45:45.820Z,3.93
2018-12-06T00:45:50.107Z,3.94
2018-12-06T00:45:54.303Z,3.94
2018-12-06T00:45:58.595Z,3.93
2018-12-06T00:46:02.887Z,3.94
2018-12-06T00:46:07.182Z,3.95
2018-12-06T00:46:11.480Z,3.95
2018-12-06T00:46:15.772Z,3.95
2018-12-06T00:46:19.963Z,3.96
2018-12-06T00:46:24.255Z,3.95
2018-12-06T00:46:28.556Z,3.96
2018-12-06T00:46:32.863Z,3.96
2018-12-06T00:46:37.157Z,3.97
2018-12-06T00:46:41.445Z,3.96
2018-12-06T00:46:45.736Z,3.96
2018-12-06T00:46:50.027Z,3.97
2018-12-06T00:46:54.321Z,3.98
2018-12-06T00:46:58.613Z,3.97
2018-12-06T00:47:02.907Z,3.97
2018-12-06T00:47:07.281Z,3.98
2018-12-06T00:47:11.475Z,3.99
2018-12-06T00:47:15.778Z,3.99
2018-12-06T00:47:20.073Z,4
2018-12-06T00:47:24.370Z,3.99
2018-12-06T00:47:28.662Z,4
2018-12-06T00:47:32.956Z,3.99
2018-12-06T00:47:37.261Z,4
2018-12-06T00:47:41.570Z,4
2018-12-06T00:47:45.872Z,4
2018-12-06T00:47:50.068Z,4.01
2018-12-06T00:47:54.362Z,4.01
2018-12-06T00:47:58.561Z,4.02
2018-12-06T00:48:02.763Z,4.01
2018-12-06T00:48:06.961Z,4.01
2018-12-06T00:48:11.254Z,4.02
2018-12-06T00:48:15.553Z,4.02
2018-12-06T00:48:19.841Z,4.03
2018-12-06T00:48:24.133Z,4.03
2018-12-06T00:48:28.424Z,4.03
2018-12-06T00:48:32.785Z,4.03
2018-12-06T00:48:36.995Z,4.03
2018-12-06T00:48:41.291Z,4.04
2018-12-06T00:48:45.489Z,4.03
2018-12-06T00:48:49.785Z,4.04
2018-12-06T00:48:54.079Z,4.04
2018-12-06T00:48:58.450Z,4.05
2018-12-06T00:49:02.753Z,4.05
2018-12-06T00:49:07.114Z,4.05
2018-12-06T00:49:11.412Z,4.05
2018-12-06T00:49:15.606Z,4.05
2018-12-06T00:49:19.897Z,4.06
2018-12-06T00:49:24.094Z,4.06
2018-12-06T00:49:28.306Z,4.07
2018-12-06T00:49:32.600Z,4.07
2018-12-06T00:49:36.902Z,4.07
2018-12-06T00:49:41.219Z,4.07
2018-12-06T00:49:45.519Z,4.08
2018-12-06T00:49:49.807Z,4.07
2018-12-06T00:49:54.002Z,4.08
2018-12-06T00:49:58.205Z,4.09
2018-12-06T00:50:02.407Z,4.08
2018-12-06T00:50:06.715Z,4.08
2018-12-06T00:50:11.092Z,4.09
2018-12-06T00:50:15.286Z,4.1
2018-12-06T00:50:19.684Z,4.09
2018-12-06T00:50:23.984Z,4.1
2018-12-06T00:50:28.275Z,4.09
2018-12-06T00:50:32.586Z,4.1
2018-12-06T00:50:36.876Z,4.1
2018-12-06T00:50:41.176Z,4.1
2018-12-06T00:50:45.475Z,4.11
2018-12-06T00:50:49.806Z,4.11
2018-12-06T00:50:53.996Z,4.11
2018-12-06T00:50:58.289Z,4.12
2018-12-06T00:51:02.541Z,4.12
2018-12-06T00:51:06.829Z,4.13
2018-12-06T00:51:11.121Z,4.12
2018-12-06T00:51:15.420Z,4.13
2018-12-06T00:51:19.718Z,4.14
2018-12-06T00:51:24.010Z,4.14
2018-12-06T00:51:28.307Z,4.15
2018-12-06T00:51:32.603Z,4.14
2018-12-06T00:51:36.898Z,4.17
2018-12-06T00:51:41.189Z,4.15
2018-12-06T00:51:45.482Z,4.16
2018-12-06T00:51:49.777Z,4.15
2018-12-06T00:51:54.067Z,4.15
2018-12-06T00:51:58.359Z,4.16
2018-12-06T00:52:02.657Z,4.17
2018-12-06T00:52:06.956Z,4.17
2018-12-06T00:52:11.158Z,4.17
2018-12-06T00:52:15.456Z,4.18
2018-12-06T00:52:19.751Z,4.17
2018-12-06T00:52:23.956Z,4.17
2018-12-06T00:52:28.245Z,4.19
2018-12-06T00:52:32.448Z,4.19
2018-12-06T00:52:36.737Z,4.19
2018-12-06T00:52:41.034Z,4.18
2018-12-06T00:52:45.327Z,4.19
2018-12-06T00:52:49.621Z,4.19
2018-12-06T00:52:53.823Z,4.19
2018-12-06T00:52:58.020Z,4.19
2018-12-06T00:53:02.313Z,4.19
2018-12-06T00:53:06.606Z,4.19
2018-12-06T00:53:10.895Z,4.2
2018-12-06T00:53:15.093Z,4.2
2018-12-06T00:53:19.383Z,4.2
2018-12-06T00:53:23.676Z,4.2
2018-12-06T00:53:27.961Z,4.19
2018-12-06T00:53:32.252Z,4.2
2018-12-06T00:53:36.548Z,4.19
2018-12-06T00:53:40.918Z,4.21
2018-12-06T00:53:45.214Z,4.2
2018-12-06T00:53:49.508Z,4.2
2018-12-06T00:53:53.799Z,4.19
2018-12-06T00:53:58.087Z,4.2
2018-12-06T00:54:02.447Z,4.21
2018-12-06T00:54:06.739Z,4.21
2018-12-06T00:54:10.933Z,4.21
2018-12-06T00:54:15.228Z,4.2
2018-12-06T00:54:19.521Z,4.2
2018-12-06T00:54:23.821Z,4.2
2018-12-06T00:54:28.110Z,4.2
2018-12-06T00:54:32.415Z,4.2
2018-12-06T00:54:36.704Z,4.2
2018-12-06T00:54:40.900Z,4.2
2018-12-06T00:54:45.103Z,4.2
2018-12-06T00:54:49.431Z,4.19
2018-12-06T00:54:53.743Z,4.2
2018-12-06T00:54:58.015Z,4.2
2018-12-06T00:55:02.511Z,4.19
2018-12-06T00:55:06.801Z,4.2
2018-12-06T00:55:11.096Z,4.19
2018-12-06T00:55:15.301Z,4.19
2018-12-06T00:55:19.610Z,4.19
2018-12-06T00:55:23.906Z,4.19
2018-12-06T00:55:28.180Z,4.19
2018-12-06T00:55:32.469Z,4.19
2018-12-06T00:55:36.762Z,4.19
2018-12-06T00:55:41.053Z,4.19
2018-12-06T00:55:45.345Z,4.19
2018-12-06T00:55:49.658Z,4.19
2018-12-06T00:55:53.953Z,4.19
2018-12-06T00:55:58.248Z,4.19
2018-12-06T00:56:02.451Z,4.19
2018-12-06T00:56:06.646Z,4.19
2018-12-06T00:56:10.936Z,4.18
2018-12-06T00:56:15.223Z,4.18
2018-12-06T00:56:19.512Z,4.18
2018-12-06T00:56:23.887Z,4.17
2018-12-06T00:56:28.103Z,4.18
2018-12-06T00:56:32.391Z,4.18
2018-12-06T00:56:36.681Z,4.17
2018-12-06T00:56:40.972Z,4.18
2018-12-06T00:56:45.169Z,4.18
2018-12-06T00:56:49.476Z,4.17
2018-12-06T00:56:53.831Z,4.17
2018-12-06T00:56:58.119Z,4.17
2018-12-06T00:57:02.413Z,4.17
2018-12-06T00:57:06.707Z,4.17
2018-12-06T00:57:10.903Z,4.17
2018-12-06T00:57:15.097Z,4.17